createdAt,value
2023-05-13T00:03:02.490Z,100.00
2023-05-13T00:06:06.125Z,100.00
2023-05-13T00:09:09.940Z,100.00
2023-05-13T00:12:13.449Z,100.00
2023-05-13T00:15:16.923Z,100.00
2023-05-13T00:18:21.854Z,100.00
2023-05-13T00:21:25.377Z,100.00
2023-05-13T00:24:28.864Z,100.00
2023-05-13T00:27:32.884Z,100.00
2023-05-13T00:30:36.773Z,100.00
2023-05-13T00:33:41.713Z,100.00
2023-05-13T00:36:45.625Z,100.00
2023-05-13T00:39:49.110Z,100.00
2023-05-13T00:42:53.633Z,100.00
2023-05-13T00:45:57.891Z,100.00
2023-05-13T00:49:03.607Z,100.00
2023-05-13T00:52:08.020Z,100.00
2023-05-13T00:55:12.531Z,100.00
2023-05-13T00:58:18.014Z,100.00
2023-05-13T01:01:36.118Z,100.00
2023-05-13T01:04:50.767Z,100.00
2023-05-13T01:08:05.378Z,100.00
2023-05-13T01:11:17.124Z,100.00
2023-05-13T01:14:30.619Z,100.00
2023-05-13T01:17:42.697Z,100.00
2023-05-13T01:20:48.086Z,100.00
2023-05-13T01:23:52.955Z,100.00
2023-05-13T01:26:56.534Z,100.00
2023-05-13T01:30:00.311Z,100.00
2023-05-13T01:33:04.676Z,100.00
2023-05-13T01:36:10.034Z,100.00
2023-05-13T01:39:15.380Z,100.00
2023-05-13T01:42:19.021Z,100.00
2023-05-13T01:45:22.632Z,100.00
2023-05-13T01:48:26.113Z,100.00
2023-05-13T01:51:29.610Z,100.00
2023-05-13T01:54:34.529Z,100.00
2023-05-13T01:57:38.100Z,100.00
2023-05-13T02:00:41.561Z,100.00
2023-05-13T02:03:45.305Z,100.00
2023-05-13T02:06:48.886Z,100.00
2023-05-13T02:09:55.476Z,100.00
2023-05-13T02:12:58.976Z,100.00
2023-05-13T02:16:02.485Z,100.00
2023-05-13T02:19:06.355Z,100.00
2023-05-13T02:22:09.992Z,100.00
2023-05-13T02:25:14.815Z,100.00
2023-05-13T02:28:18.308Z,100.00
2023-05-13T02:31:23.119Z,100.00
2023-05-13T02:34:27.104Z,100.00
2023-05-13T02:37:30.634Z,100.00
2023-05-13T02:40:35.699Z,100.00
2023-05-13T02:43:39.234Z,100.00
2023-05-13T02:46:44.209Z,100.00
2023-05-13T02:49:47.808Z,100.00
2023-05-13T02:52:51.314Z,100.00
2023-05-13T02:55:56.205Z,100.00
2023-05-13T02:58:59.742Z,100.00
2023-05-13T03:02:03.240Z,100.00
2023-05-13T03:05:08.212Z,100.00
2023-05-13T03:08:11.841Z,100.00
2023-05-13T03:11:16.706Z,100.00
2023-05-13T03:14:20.332Z,100.00
2023-05-13T03:17:23.908Z,100.00
2023-05-13T03:20:27.540Z,100.00
2023-05-13T03:23:31.126Z,100.00
2023-05-13T03:26:36.032Z,100.00
2023-05-13T03:29:39.511Z,100.00
2023-05-13T03:32:43.154Z,100.00
2023-05-13T03:35:48.565Z,100.00
2023-05-13T03:38:52.051Z,100.00
2023-05-13T03:41:58.024Z,100.00
2023-05-13T03:45:01.461Z,100.00
2023-05-13T03:48:05.380Z,100.00
2023-05-13T03:51:08.872Z,100.00
2023-05-13T03:54:12.366Z,100.00
2023-05-13T03:57:17.273Z,100.00
2023-05-13T04:00:21.132Z,100.00
2023-05-13T04:03:24.981Z,100.00
2023-05-13T04:06:28.511Z,100.00
2023-05-13T04:09:31.996Z,100.00
2023-05-13T04:12:37.540Z,100.00
2023-05-13T04:15:41.073Z,100.00
2023-05-13T04:18:44.598Z,100.00
2023-05-13T04:21:48.088Z,100.00
2023-05-13T04:24:56.466Z,100.00
2023-05-13T04:28:01.463Z,100.00
2023-05-13T04:31:05.220Z,100.00
2023-05-13T04:34:08.745Z,100.00
2023-05-13T04:37:12.261Z,100.00
2023-05-13T04:40:16.242Z,100.00
2023-05-13T04:43:22.828Z,100.00
2023-05-13T04:46:26.551Z,100.00
2023-05-13T04:49:30.215Z,100.00
2023-05-13T04:52:34.112Z,100.00
2023-05-13T04:55:37.731Z,100.00
2023-05-13T04:58:42.743Z,100.00
2023-05-13T05:01:46.444Z,100.00
2023-05-13T05:04:50.363Z,100.00
2023-05-13T05:07:53.901Z,100.00
2023-05-13T05:10:57.504Z,100.00
2023-05-13T05:14:02.645Z,100.00
2023-05-13T05:17:06.466Z,100.00
2023-05-13T05:20:11.573Z,100.00
2023-05-13T05:23:15.156Z,100.00
2023-05-13T05:26:18.601Z,100.00
2023-05-13T05:29:23.691Z,100.00
2023-05-13T05:32:27.510Z,100.00
2023-05-13T05:35:31.152Z,100.00
2023-05-13T05:38:34.635Z,100.00
2023-05-13T05:41:38.302Z,100.00
2023-05-13T05:44:43.150Z,100.00
2023-05-13T05:47:46.789Z,100.00
2023-05-13T05:50:50.334Z,100.00
2023-05-13T05:53:53.786Z,100.00
2023-05-13T05:56:57.270Z,100.00
2023-05-13T06:00:02.102Z,100.00
2023-05-13T06:03:06.217Z,100.00
2023-05-13T06:06:10.053Z,100.00
2023-05-13T06:09:13.536Z,100.00
2023-05-13T06:12:17.091Z,100.00
2023-05-13T06:15:31.373Z,100.00
2023-05-13T06:18:34.959Z,100.00
2023-05-13T06:21:39.107Z,100.00
2023-05-13T06:24:44.680Z,100.00
2023-05-13T06:27:48.192Z,100.00
2023-05-13T06:30:53.855Z,100.00
2023-05-13T06:33:57.548Z,100.00
2023-05-13T06:37:01.632Z,100.00
2023-05-13T06:40:06.129Z,100.00
2023-05-13T06:43:09.648Z,100.00
2023-05-13T06:46:14.573Z,100.00
2023-05-13T06:49:18.135Z,100.00
2023-05-13T06:52:21.674Z,100.00
2023-05-13T06:55:26.140Z,100.00
2023-05-13T06:58:29.673Z,100.00
2023-05-13T07:01:34.689Z,100.00
2023-05-13T07:04:38.258Z,100.00
2023-05-13T07:07:43.381Z,100.00
2023-05-13T07:10:47.048Z,100.00
2023-05-13T07:13:50.619Z,100.00
2023-05-13T07:16:55.539Z,100.00
2023-05-13T07:19:59.273Z,100.00
2023-05-13T07:23:02.886Z,100.00
2023-05-13T07:26:06.606Z,100.00
2023-05-13T07:29:10.138Z,100.00
2023-05-13T07:32:14.994Z,100.00
2023-05-13T07:35:18.893Z,100.00
2023-05-13T07:38:22.984Z,100.00
2023-05-13T07:41:27.729Z,100.00
2023-05-13T07:44:31.176Z,100.00
2023-05-13T07:47:36.318Z,100.00
2023-05-13T07:50:39.878Z,100.00
2023-05-13T07:53:43.414Z,100.00
2023-05-13T07:56:48.085Z,100.00
2023-05-13T07:59:52.802Z,100.00
2023-05-13T08:02:58.115Z,100.00
2023-05-13T08:06:01.687Z,100.00
2023-05-13T08:09:05.443Z,100.00
2023-05-13T08:12:09.646Z,100.00
2023-05-13T08:15:34.934Z,100.00
2023-05-13T08:18:40.017Z,97.12
2023-05-13T08:21:43.722Z,88.71
2023-05-13T08:24:47.353Z,89.20
2023-05-13T08:27:50.864Z,82.70
2023-05-13T08:30:54.498Z,90.18
2023-05-13T08:34:00.569Z,82.35
2023-05-13T08:37:04.367Z,91.60
2023-05-13T08:40:11.112Z,92.76
2023-05-13T08:43:17.680Z,84.25
2023-05-13T08:46:25.208Z,75.33
2023-05-13T08:49:30.563Z,70.54
2023-05-13T08:52:34.195Z,73.22
2023-05-13T08:55:37.721Z,68.67
2023-05-13T08:58:41.219Z,70.66
2023-05-13T09:01:46.267Z,63.57
2023-05-13T09:04:56.370Z,63.07
2023-05-13T09:08:01.682Z,59.94
2023-05-13T09:11:06.366Z,62.70
2023-05-13T09:14:11.971Z,61.04
2023-05-13T09:17:17.640Z,57.22
2023-05-13T09:20:25.480Z,55.62
2023-05-13T09:23:29.419Z,56.07
2023-05-13T09:26:32.925Z,54.23
2023-05-13T09:29:36.405Z,54.99
2023-05-13T09:32:40.650Z,56.63
2023-05-13T09:35:50.681Z,54.98
2023-05-13T09:38:57.403Z,58.04
2023-05-13T09:42:04.908Z,58.78
2023-05-13T09:45:11.494Z,60.05
2023-05-13T09:48:15.647Z,59.62
2023-05-13T09:51:26.094Z,59.50
2023-05-13T09:54:37.198Z,59.36
2023-05-13T09:57:42.018Z,60.07
2023-05-13T10:00:45.953Z,61.00
2023-05-13T10:03:50.071Z,62.20
2023-05-13T10:06:56.088Z,61.65
2023-05-13T10:10:03.913Z,57.97
2023-05-13T10:13:11.032Z,60.57
2023-05-13T10:16:15.284Z,59.92
2023-05-13T10:19:22.914Z,58.85
2023-05-13T10:22:31.644Z,58.06
2023-05-13T10:25:35.397Z,58.95
2023-05-13T10:28:42.901Z,57.10
2023-05-13T10:31:47.265Z,57.52
2023-05-13T10:34:54.228Z,56.29
2023-05-13T10:38:10.729Z,58.57
2023-05-13T10:42:00.557Z,54.94
2023-05-13T10:45:04.492Z,54.97
2023-05-13T10:48:08.896Z,56.52
2023-05-13T10:51:16.908Z,55.38
2023-05-13T10:54:25.845Z,55.63
2023-05-13T10:57:31.511Z,54.34
2023-05-13T11:00:37.444Z,52.41
2023-05-13T11:03:42.342Z,51.30
2023-05-13T11:06:49.944Z,48.21
2023-05-13T11:09:54.927Z,47.98
2023-05-13T11:13:38.373Z,46.59
2023-05-13T11:16:48.427Z,50.00
2023-05-13T11:19:53.732Z,47.36
2023-05-13T11:22:57.866Z,47.73
2023-05-13T11:26:17.345Z,48.05
2023-05-13T11:29:33.101Z,47.63
2023-05-13T11:32:56.582Z,49.33
2023-05-13T11:36:00.964Z,49.32
2023-05-13T11:39:13.928Z,50.26
2023-05-13T11:42:19.151Z,44.30
2023-05-13T11:45:24.980Z,47.01
2023-05-13T11:48:30.192Z,46.24
2023-05-13T11:51:35.972Z,44.38
2023-05-13T11:54:46.483Z,44.31
2023-05-13T11:57:51.621Z,44.97
2023-05-13T12:00:56.528Z,43.43
2023-05-13T12:04:03.260Z,44.12
2023-05-13T12:07:06.943Z,45.59
2023-05-13T12:10:10.978Z,46.21
2023-05-13T12:13:16.591Z,43.72
2023-05-13T12:16:25.256Z,45.36
2023-05-13T12:19:28.895Z,47.68
2023-05-13T12:22:32.859Z,46.25
2023-05-13T12:25:43.991Z,47.55
2023-05-13T12:28:48.964Z,44.01
2023-05-13T12:32:06.309Z,44.76
2023-05-13T12:35:15.115Z,43.30
2023-05-13T12:38:20.958Z,45.26
2023-05-13T12:41:27.190Z,44.56
2023-05-13T12:44:33.533Z,45.21
2023-05-13T12:47:50.645Z,44.39
2023-05-13T12:50:54.237Z,45.55
2023-05-13T12:53:58.841Z,45.59
2023-05-13T12:57:02.716Z,45.34
2023-05-13T13:00:10.504Z,43.99
2023-05-13T13:03:14.098Z,44.81
2023-05-13T13:06:17.809Z,43.89
2023-05-13T13:09:21.250Z,44.34
2023-05-13T13:12:25.423Z,43.45
2023-05-13T13:15:30.682Z,43.73
2023-05-13T13:18:34.435Z,41.56
2023-05-13T13:21:37.956Z,41.03
2023-05-13T13:24:41.509Z,40.89
2023-05-13T13:27:45.242Z,39.31
2023-05-13T13:30:50.140Z,41.04
2023-05-13T13:33:54.139Z,41.44
2023-05-13T13:36:57.738Z,39.47
2023-05-13T13:40:01.322Z,39.58
2023-05-13T13:43:05.172Z,37.90
2023-05-13T13:46:10.297Z,38.29
2023-05-13T13:49:23.265Z,40.68
2023-05-13T13:52:28.640Z,41.47
2023-05-13T13:55:32.150Z,41.14
2023-05-13T13:58:36.241Z,41.22
2023-05-13T14:01:41.336Z,41.02
2023-05-13T14:04:44.955Z,41.20
2023-05-13T14:07:49.627Z,40.32
2023-05-13T14:10:53.578Z,41.09
2023-05-13T14:13:57.246Z,41.00
2023-05-13T14:17:02.274Z,41.20
2023-05-13T14:20:07.929Z,40.35
2023-05-13T14:23:11.450Z,40.29
2023-05-13T14:26:15.632Z,40.50
2023-05-13T14:29:19.160Z,39.89
2023-05-13T14:32:24.062Z,39.67
2023-05-13T14:35:27.592Z,40.05
2023-05-13T14:38:31.937Z,38.35
2023-05-13T14:41:35.414Z,37.98
2023-05-13T14:44:38.897Z,38.48
2023-05-13T14:47:43.821Z,39.49
2023-05-13T14:50:48.120Z,39.01
2023-05-13T14:53:51.628Z,38.76
2023-05-13T14:56:55.127Z,39.48
2023-05-13T14:59:59.966Z,40.47
2023-05-13T15:03:06.083Z,40.19
2023-05-13T15:06:10.589Z,40.05
2023-05-13T15:09:14.067Z,40.26
2023-05-13T15:12:17.712Z,41.37
2023-05-13T15:15:21.521Z,40.50
2023-05-13T15:18:26.508Z,39.38
2023-05-13T15:21:29.971Z,38.84
2023-05-13T15:24:33.500Z,38.40
2023-05-13T15:27:37.084Z,39.10
2023-05-13T15:30:40.577Z,39.22
2023-05-13T15:33:45.500Z,38.78
2023-05-13T15:36:48.927Z,38.07
2023-05-13T15:39:52.467Z,38.50
2023-05-13T15:42:56.593Z,38.73
2023-05-13T15:46:00.224Z,37.50
2023-05-13T15:49:05.137Z,35.44
2023-05-13T15:52:08.799Z,36.02
2023-05-13T15:55:12.233Z,36.73
2023-05-13T15:58:15.718Z,36.71
2023-05-13T16:01:19.343Z,38.13
2023-05-13T16:04:24.334Z,38.49
2023-05-13T16:07:27.983Z,39.60
2023-05-13T16:10:31.520Z,39.32
2023-05-13T16:13:35.035Z,38.87
2023-05-13T16:16:39.168Z,38.09
2023-05-13T16:19:44.133Z,36.74
2023-05-13T16:22:47.709Z,36.31
2023-05-13T16:25:51.612Z,36.29
2023-05-13T16:28:55.188Z,36.58
2023-05-13T16:31:58.815Z,36.07
2023-05-13T16:35:04.892Z,34.90
2023-05-13T16:38:08.405Z,35.51
2023-05-13T16:41:12.622Z,35.47
2023-05-13T16:44:16.127Z,35.35
2023-05-13T16:47:19.716Z,34.97
2023-05-13T16:50:25.331Z,34.87
2023-05-13T16:53:29.088Z,34.05
2023-05-13T16:56:32.654Z,34.58
2023-05-13T16:59:37.094Z,33.73
2023-05-13T17:02:40.847Z,34.57
2023-05-13T17:05:46.133Z,35.24
2023-05-13T17:08:49.580Z,36.52
2023-05-13T17:11:53.277Z,35.81
2023-05-13T17:14:57.015Z,35.92
2023-05-13T17:18:00.683Z,36.07
2023-05-13T17:21:05.955Z,36.04
2023-05-13T17:24:09.560Z,35.25
2023-05-13T17:27:13.290Z,34.95
2023-05-13T17:30:17.966Z,35.57
2023-05-13T17:33:21.760Z,36.01
2023-05-13T17:36:26.609Z,36.70
2023-05-13T17:39:30.207Z,37.39
2023-05-13T17:42:33.659Z,38.07
2023-05-13T17:45:37.304Z,38.13
2023-05-13T17:48:41.042Z,39.07
2023-05-13T17:51:49.004Z,37.78
2023-05-13T17:54:52.505Z,37.88
2023-05-13T17:57:56.797Z,39.02
2023-05-13T18:01:00.700Z,38.39
2023-05-13T18:04:04.324Z,38.71
2023-05-13T18:07:09.679Z,39.57
2023-05-13T18:10:13.613Z,39.19
2023-05-13T18:13:17.239Z,39.70
2023-05-13T18:16:21.140Z,40.11
2023-05-13T18:19:24.670Z,40.65
2023-05-13T18:22:29.613Z,40.78
2023-05-13T18:25:36.143Z,41.21
2023-05-13T18:28:45.004Z,41.39
2023-05-13T18:31:48.630Z,41.45
2023-05-13T18:34:52.239Z,41.70
2023-05-13T18:37:57.224Z,42.07
2023-05-13T18:41:03.397Z,42.26
2023-05-13T18:44:07.117Z,42.92
2023-05-13T18:47:11.121Z,42.79
2023-05-13T18:50:14.733Z,43.54
2023-05-13T18:53:19.607Z,43.48
2023-05-13T18:56:23.115Z,43.46
2023-05-13T18:59:26.748Z,43.82
2023-05-13T19:02:30.522Z,45.07
2023-05-13T19:05:34.450Z,45.67
2023-05-13T19:08:39.355Z,46.68
2023-05-13T19:11:43.123Z,46.55
2023-05-13T19:14:46.626Z,46.74
2023-05-13T19:17:50.330Z,47.45
2023-05-13T19:20:53.980Z,47.69
2023-05-13T19:23:59.633Z,49.01
2023-05-13T19:27:03.359Z,51.13
2023-05-13T19:30:08.521Z,50.92
2023-05-13T19:33:12.178Z,51.04
2023-05-13T19:36:15.761Z,51.46
2023-05-13T19:39:20.689Z,51.02
2023-05-13T19:42:24.398Z,52.14
2023-05-13T19:45:31.180Z,52.02
2023-05-13T19:48:34.803Z,52.92
2023-05-13T19:51:38.475Z,52.67
2023-05-13T19:54:43.448Z,54.84
2023-05-13T19:57:47.560Z,56.23
2023-05-13T20:00:51.089Z,56.87
2023-05-13T20:03:55.596Z,57.95
2023-05-13T20:06:59.282Z,61.11
2023-05-13T20:10:04.447Z,64.91
2023-05-13T20:13:07.960Z,69.41
2023-05-13T20:16:11.860Z,72.44
2023-05-13T20:19:15.471Z,77.48
2023-05-13T20:22:20.374Z,80.13
2023-05-13T20:25:25.535Z,81.52
2023-05-13T20:28:29.102Z,84.80
2023-05-13T20:31:32.613Z,74.57
2023-05-13T20:34:37.769Z,79.84
2023-05-13T20:37:41.902Z,78.07
2023-05-13T20:40:47.324Z,76.33
2023-05-13T20:43:50.917Z,72.68
2023-05-13T20:46:54.428Z,72.37
2023-05-13T20:49:58.535Z,73.08
2023-05-13T20:53:02.331Z,72.61
2023-05-13T20:56:10.038Z,76.08
2023-05-13T20:59:13.657Z,74.90
2023-05-13T21:02:17.311Z,77.01
2023-05-13T21:05:21.311Z,79.22
2023-05-13T21:08:25.236Z,81.52
2023-05-13T21:11:30.119Z,76.64
2023-05-13T21:14:33.593Z,87.03
2023-05-13T21:17:37.151Z,97.20
2023-05-13T21:20:40.621Z,97.90
2023-05-13T21:23:45.676Z,93.31
2023-05-13T21:26:50.992Z,93.26
2023-05-13T21:29:54.511Z,94.66
2023-05-13T21:32:58.054Z,93.38
2023-05-13T21:36:01.557Z,92.91
2023-05-13T21:39:05.206Z,92.64
2023-05-13T21:42:10.098Z,91.39
2023-05-13T21:45:15.101Z,91.74
2023-05-13T21:48:19.396Z,96.67
2023-05-13T21:51:23.548Z,96.60
2023-05-13T21:54:27.284Z,96.84
2023-05-13T21:57:32.194Z,98.31
2023-05-13T22:00:35.665Z,99.48
2023-05-13T22:03:39.246Z,100.00
2023-05-13T22:06:42.906Z,100.00
2023-05-13T22:09:47.903Z,100.00
2023-05-13T22:12:54.555Z,100.00
2023-05-13T22:15:58.012Z,100.00
2023-05-13T22:19:01.797Z,100.00
2023-05-13T22:22:05.723Z,100.00
2023-05-13T22:25:09.830Z,100.00
2023-05-13T22:28:14.673Z,100.00
2023-05-13T22:31:18.621Z,100.00
2023-05-13T22:34:22.623Z,100.00
2023-05-13T22:37:26.325Z,100.00
2023-05-13T22:40:29.838Z,100.00
2023-05-13T22:43:35.864Z,100.00
2023-05-13T22:46:40.074Z,100.00
2023-05-13T22:49:43.635Z,100.00
2023-05-13T22:52:47.127Z,100.00
2023-05-13T22:55:50.715Z,100.00
2023-05-13T22:58:55.563Z,100.00
2023-05-13T23:01:59.417Z,100.00
2023-05-13T23:05:02.994Z,100.00
2023-05-13T23:08:06.937Z,100.00
2023-05-13T23:11:10.436Z,100.00
2023-05-13T23:14:15.413Z,100.00
2023-05-13T23:17:18.875Z,100.00
2023-05-13T23:20:22.497Z,100.00
2023-05-13T23:23:26.244Z,100.00
2023-05-13T23:26:29.767Z,100.00
2023-05-13T23:29:34.638Z,100.00
2023-05-13T23:32:38.225Z,100.00
2023-05-13T23:35:41.656Z,100.00
2023-05-13T23:38:45.256Z,100.00
2023-05-13T23:41:48.978Z,100.00
2023-05-13T23:44:53.888Z,100.00
2023-05-13T23:47:57.393Z,100.00
2023-05-13T23:51:01.017Z,100.00
2023-05-13T23:54:04.612Z,100.00
2023-05-13T23:57:09.116Z,100.00
